sensor_id;sensor_type;location;lat;lon;timestamp;temperature;humidity
23507;DHT22;11930;53.076;18.250;2023-05-07T00:00:04;3.10;99.90
23507;DHT22;11930;53.076;18.250;2023-05-07T00:02:54;3.00;99.90
23507;DHT22;11930;53.076;18.250;2023-05-07T00:05:20;2.90;99.90
23507;DHT22;11930;53.076;18.250;2023-05-07T00:07:46;2.90;99.90
23507;DHT22;11930;53.076;18.250;2023-05-07T00:10:12;2.80;99.90
23507;DHT22;11930;53.076;18.250;2023-05-07T00:12:40;2.80;99.90
23507;DHT22;11930;53.076;18.250;2023-05-07T00:15:07;2.70;99.90
23507;DHT22;11930;53.076;18.250;2023-05-07T00:17:33;2.70;99.90
23507;DHT22;11930;53.076;18.250;2023-05-07T00:19:59;2.70;99.90
23507;DHT22;11930;53.076;18.250;2023-05-07T00:22:25;2.60;99.90
23507;DHT22;11930;53.076;18.250;2023-05-07T00:24:51;2.60;99.90
23507;DHT22;11930;53.076;18.250;2023-05-07T00:27:17;2.50;99.90
23507;DHT22;11930;53.076;18.250;2023-05-07T00:29:43;2.50;99.90
23507;DHT22;11930;53.076;18.250;2023-05-07T00:32:09;2.50;99.90
23507;DHT22;11930;53.076;18.250;2023-05-07T00:34:35;2.40;99.90
23507;DHT22;11930;53.076;18.250;2023-05-07T00:37:01;2.40;99.90
23507;DHT22;11930;53.076;18.250;2023-05-07T00:39:27;2.30;99.90
23507;DHT22;11930;53.076;18.250;2023-05-07T00:41:53;2.30;99.90
23507;DHT22;11930;53.076;18.250;2023-05-07T00:44:19;2.20;99.90
23507;DHT22;11930;53.076;18.250;2023-05-07T00:46:45;2.20;99.90
23507;DHT22;11930;53.076;18.250;2023-05-07T00:49:14;2.20;99.90
23507;DHT22;11930;53.076;18.250;2023-05-07T00:51:40;2.10;99.90
23507;DHT22;11930;53.076;18.250;2023-05-07T00:54:07;2.10;99.90
23507;DHT22;11930;53.076;18.250;2023-05-07T00:56:34;2.00;99.90
23507;DHT22;11930;53.076;18.250;2023-05-07T00:59:01;2.00;99.90
23507;DHT22;11930;53.076;18.250;2023-05-07T01:01:28;1.90;99.90
23507;DHT22;11930;53.076;18.250;2023-05-07T01:03:54;1.90;99.90
23507;DHT22;11930;53.076;18.250;2023-05-07T01:06:21;1.90;99.90
23507;DHT22;11930;53.076;18.250;2023-05-07T01:08:49;1.90;99.90
23507;DHT22;11930;53.076;18.250;2023-05-07T01:11:16;1.80;99.90
23507;DHT22;11930;53.076;18.250;2023-05-07T01:13:43;1.80;99.90
23507;DHT22;11930;53.076;18.250;2023-05-07T01:16:09;1.80;99.90
23507;DHT22;11930;53.076;18.250;2023-05-07T01:18:35;1.80;99.90
23507;DHT22;11930;53.076;18.250;2023-05-07T01:21:04;1.70;99.90
23507;DHT22;11930;53.076;18.250;2023-05-07T01:23:30;1.70;99.90
23507;DHT22;11930;53.076;18.250;2023-05-07T01:25:56;1.70;99.90
23507;DHT22;11930;53.076;18.250;2023-05-07T01:28:26;1.60;99.90
23507;DHT22;11930;53.076;18.250;2023-05-07T01:31:00;1.60;99.90
23507;DHT22;11930;53.076;18.250;2023-05-07T01:33:31;1.50;99.90
23507;DHT22;11930;53.076;18.250;2023-05-07T01:35:58;1.40;99.90
23507;DHT22;11930;53.076;18.250;2023-05-07T01:38:27;1.40;99.90
23507;DHT22;11930;53.076;18.250;2023-05-07T01:40:54;1.30;99.90
23507;DHT22;11930;53.076;18.250;2023-05-07T01:43:21;1.30;99.90
23507;DHT22;11930;53.076;18.250;2023-05-07T01:45:47;1.20;99.90
23507;DHT22;11930;53.076;18.250;2023-05-07T01:48:15;1.20;99.90
23507;DHT22;11930;53.076;18.250;2023-05-07T01:50:44;1.10;99.90
23507;DHT22;11930;53.076;18.250;2023-05-07T01:53:11;1.10;99.90
23507;DHT22;11930;53.076;18.250;2023-05-07T01:55:37;1.00;99.90
23507;DHT22;11930;53.076;18.250;2023-05-07T01:58:04;1.00;99.90
23507;DHT22;11930;53.076;18.250;2023-05-07T02:00:31;0.90;99.90
23507;DHT22;11930;53.076;18.250;2023-05-07T02:02:57;0.90;99.90
23507;DHT22;11930;53.076;18.250;2023-05-07T02:05:32;0.90;99.90
23507;DHT22;11930;53.076;18.250;2023-05-07T02:08:04;0.90;99.90
23507;DHT22;11930;53.076;18.250;2023-05-07T02:10:31;0.90;99.90
23507;DHT22;11930;53.076;18.250;2023-05-07T02:12:57;0.90;99.90
23507;DHT22;11930;53.076;18.250;2023-05-07T02:15:22;1.00;99.90
23507;DHT22;11930;53.076;18.250;2023-05-07T02:18:05;1.00;99.90
23507;DHT22;11930;53.076;18.250;2023-05-07T02:20:37;1.10;99.90
23507;DHT22;11930;53.076;18.250;2023-05-07T02:23:03;1.10;99.90
23507;DHT22;11930;53.076;18.250;2023-05-07T02:25:30;1.10;99.90
23507;DHT22;11930;53.076;18.250;2023-05-07T02:27:56;1.20;99.90
23507;DHT22;11930;53.076;18.250;2023-05-07T02:30:29;1.20;99.90
23507;DHT22;11930;53.076;18.250;2023-05-07T02:32:57;1.20;99.90
23507;DHT22;11930;53.076;18.250;2023-05-07T02:35:24;1.30;99.90
23507;DHT22;11930;53.076;18.250;2023-05-07T02:37:51;1.30;99.90
23507;DHT22;11930;53.076;18.250;2023-05-07T02:40:17;1.30;99.90
23507;DHT22;11930;53.076;18.250;2023-05-07T02:42:43;1.20;99.90
23507;DHT22;11930;53.076;18.250;2023-05-07T02:45:09;1.20;99.90
23507;DHT22;11930;53.076;18.250;2023-05-07T02:47:36;1.10;99.90
23507;DHT22;11930;53.076;18.250;2023-05-07T02:50:03;1.10;99.90
23507;DHT22;11930;53.076;18.250;2023-05-07T02:52:30;1.10;99.90
23507;DHT22;11930;53.076;18.250;2023-05-07T02:54:56;1.00;99.90
23507;DHT22;11930;53.076;18.250;2023-05-07T02:57:22;1.00;99.90
23507;DHT22;11930;53.076;18.250;2023-05-07T02:59:48;1.00;99.90
23507;DHT22;11930;53.076;18.250;2023-05-07T03:02:15;0.90;99.90
23507;DHT22;11930;53.076;18.250;2023-05-07T03:04:41;0.90;99.90
23507;DHT22;11930;53.076;18.250;2023-05-07T03:07:07;0.90;99.90
23507;DHT22;11930;53.076;18.250;2023-05-07T03:09:33;0.90;99.90
23507;DHT22;11930;53.076;18.250;2023-05-07T03:11:59;0.90;99.90
23507;DHT22;11930;53.076;18.250;2023-05-07T03:14:25;0.80;99.90
23507;DHT22;11930;53.076;18.250;2023-05-07T03:16:51;0.80;99.90
23507;DHT22;11930;53.076;18.250;2023-05-07T03:19:17;0.80;99.90
23507;DHT22;11930;53.076;18.250;2023-05-07T03:21:43;0.70;99.90
23507;DHT22;11930;53.076;18.250;2023-05-07T03:24:09;0.70;99.90
23507;DHT22;11930;53.076;18.250;2023-05-07T03:26:35;0.70;99.90
23507;DHT22;11930;53.076;18.250;2023-05-07T03:29:02;0.70;99.90
23507;DHT22;11930;53.076;18.250;2023-05-07T03:31:28;0.70;99.90
23507;DHT22;11930;53.076;18.250;2023-05-07T03:33:56;0.60;99.90
23507;DHT22;11930;53.076;18.250;2023-05-07T03:36:23;0.70;99.90
23507;DHT22;11930;53.076;18.250;2023-05-07T03:38:50;0.70;99.90
23507;DHT22;11930;53.076;18.250;2023-05-07T03:41:20;0.70;99.90
23507;DHT22;11930;53.076;18.250;2023-05-07T03:43:46;0.70;99.90
23507;DHT22;11930;53.076;18.250;2023-05-07T03:46:13;0.80;99.90
23507;DHT22;11930;53.076;18.250;2023-05-07T03:48:39;0.80;99.90
23507;DHT22;11930;53.076;18.250;2023-05-07T03:51:06;0.90;99.90
23507;DHT22;11930;53.076;18.250;2023-05-07T03:53:33;1.00;99.90
23507;DHT22;11930;53.076;18.250;2023-05-07T03:55:59;1.10;99.90
23507;DHT22;11930;53.076;18.250;2023-05-07T03:58:26;1.20;99.90
23507;DHT22;11930;53.076;18.250;2023-05-07T04:00:56;1.30;99.90
23507;DHT22;11930;53.076;18.250;2023-05-07T04:03:26;1.40;99.90
23507;DHT22;11930;53.076;18.250;2023-05-07T04:05:53;1.60;99.90
23507;DHT22;11930;53.076;18.250;2023-05-07T04:08:19;1.80;99.90
23507;DHT22;11930;53.076;18.250;2023-05-07T04:10:54;2.00;99.90
23507;DHT22;11930;53.076;18.250;2023-05-07T04:13:21;2.20;99.90
23507;DHT22;11930;53.076;18.250;2023-05-07T04:15:47;2.30;99.90
23507;DHT22;11930;53.076;18.250;2023-05-07T04:18:16;2.30;99.90
23507;DHT22;11930;53.076;18.250;2023-05-07T04:20:45;2.40;99.90
23507;DHT22;11930;53.076;18.250;2023-05-07T04:23:13;2.40;99.90
23507;DHT22;11930;53.076;18.250;2023-05-07T04:25:40;2.50;99.90
23507;DHT22;11930;53.076;18.250;2023-05-07T04:28:21;2.50;99.90
23507;DHT22;11930;53.076;18.250;2023-05-07T04:30:47;2.60;99.90
23507;DHT22;11930;53.076;18.250;2023-05-07T04:33:14;2.70;99.90
23507;DHT22;11930;53.076;18.250;2023-05-07T04:35:43;2.80;99.90
23507;DHT22;11930;53.076;18.250;2023-05-07T04:38:09;2.90;99.90
23507;DHT22;11930;53.076;18.250;2023-05-07T04:40:36;3.00;99.90
23507;DHT22;11930;53.076;18.250;2023-05-07T04:43:03;3.20;99.90
23507;DHT22;11930;53.076;18.250;2023-05-07T04:45:32;3.40;99.90
23507;DHT22;11930;53.076;18.250;2023-05-07T04:47:58;3.70;99.90
23507;DHT22;11930;53.076;18.250;2023-05-07T04:50:25;4.00;99.90
23507;DHT22;11930;53.076;18.250;2023-05-07T04:52:55;4.30;99.90
23507;DHT22;11930;53.076;18.250;2023-05-07T04:55:23;4.60;99.90
23507;DHT22;11930;53.076;18.250;2023-05-07T04:57:49;4.90;99.90
23507;DHT22;11930;53.076;18.250;2023-05-07T05:00:16;5.40;99.90
23507;DHT22;11930;53.076;18.250;2023-05-07T05:02:45;6.10;99.90
23507;DHT22;11930;53.076;18.250;2023-05-07T05:05:14;6.70;99.90
23507;DHT22;11930;53.076;18.250;2023-05-07T05:07:40;7.40;99.90
23507;DHT22;11930;53.076;18.250;2023-05-07T05:10:07;8.20;99.90
23507;DHT22;11930;53.076;18.250;2023-05-07T05:12:36;8.90;99.90
23507;DHT22;11930;53.076;18.250;2023-05-07T05:15:03;9.70;99.90
23507;DHT22;11930;53.076;18.250;2023-05-07T05:17:29;10.40;99.90
23507;DHT22;11930;53.076;18.250;2023-05-07T05:19:56;11.10;99.90
23507;DHT22;11930;53.076;18.250;2023-05-07T05:22:23;11.80;99.90
23507;DHT22;11930;53.076;18.250;2023-05-07T05:24:49;12.30;99.90
23507;DHT22;11930;53.076;18.250;2023-05-07T05:27:15;12.70;99.90
23507;DHT22;11930;53.076;18.250;2023-05-07T05:29:41;13.00;99.90
23507;DHT22;11930;53.076;18.250;2023-05-07T05:32:07;13.30;99.90
23507;DHT22;11930;53.076;18.250;2023-05-07T05:34:34;13.50;99.90
23507;DHT22;11930;53.076;18.250;2023-05-07T05:37:00;13.70;99.90
23507;DHT22;11930;53.076;18.250;2023-05-07T05:39:27;13.60;99.90
23507;DHT22;11930;53.076;18.250;2023-05-07T05:41:53;13.40;99.90
23507;DHT22;11930;53.076;18.250;2023-05-07T05:44:20;13.20;99.90
23507;DHT22;11930;53.076;18.250;2023-05-07T05:46:46;13.00;99.90
23507;DHT22;11930;53.076;18.250;2023-05-07T05:49:12;12.80;99.90
23507;DHT22;11930;53.076;18.250;2023-05-07T05:51:39;12.40;99.90
23507;DHT22;11930;53.076;18.250;2023-05-07T05:54:05;12.00;99.90
23507;DHT22;11930;53.076;18.250;2023-05-07T05:56:32;11.60;99.90
23507;DHT22;11930;53.076;18.250;2023-05-07T05:58:58;11.30;99.90
23507;DHT22;11930;53.076;18.250;2023-05-07T06:01:25;11.20;99.90
23507;DHT22;11930;53.076;18.250;2023-05-07T06:03:53;11.10;99.90
23507;DHT22;11930;53.076;18.250;2023-05-07T06:06:19;11.00;99.90
23507;DHT22;11930;53.076;18.250;2023-05-07T06:08:46;10.90;99.90
23507;DHT22;11930;53.076;18.250;2023-05-07T06:11:16;10.80;99.90
23507;DHT22;11930;53.076;18.250;2023-05-07T06:13:45;10.70;99.90
23507;DHT22;11930;53.076;18.250;2023-05-07T06:16:11;10.60;99.90
23507;DHT22;11930;53.076;18.250;2023-05-07T06:18:37;10.60;99.90
23507;DHT22;11930;53.076;18.250;2023-05-07T06:21:04;10.50;99.90
23507;DHT22;11930;53.076;18.250;2023-05-07T06:23:32;10.30;99.90
23507;DHT22;11930;53.076;18.250;2023-05-07T06:25:59;10.10;99.90
23507;DHT22;11930;53.076;18.250;2023-05-07T06:28:31;9.90;99.90
23507;DHT22;11930;53.076;18.250;2023-05-07T06:31:15;9.90;99.90
23507;DHT22;11930;53.076;18.250;2023-05-07T06:33:46;9.90;99.90
23507;DHT22;11930;53.076;18.250;2023-05-07T06:36:12;9.80;99.90
23507;DHT22;11930;53.076;18.250;2023-05-07T06:38:39;9.80;99.90
23507;DHT22;11930;53.076;18.250;2023-05-07T06:41:07;9.80;99.90
23507;DHT22;11930;53.076;18.250;2023-05-07T06:43:34;9.80;99.90
23507;DHT22;11930;53.076;18.250;2023-05-07T06:46:24;9.80;99.90
23507;DHT22;11930;53.076;18.250;2023-05-07T06:48:51;9.80;99.90
23507;DHT22;11930;53.076;18.250;2023-05-07T06:51:19;9.80;99.90
23507;DHT22;11930;53.076;18.250;2023-05-07T06:53:45;9.80;99.90
23507;DHT22;11930;53.076;18.250;2023-05-07T06:56:11;9.90;99.90
23507;DHT22;11930;53.076;18.250;2023-05-07T06:58:39;10.00;99.90
23507;DHT22;11930;53.076;18.250;2023-05-07T07:01:05;10.10;99.90
23507;DHT22;11930;53.076;18.250;2023-05-07T07:03:33;10.20;99.90
23507;DHT22;11930;53.076;18.250;2023-05-07T07:05:59;10.30;99.90
23507;DHT22;11930;53.076;18.250;2023-05-07T07:08:25;10.70;99.90
23507;DHT22;11930;53.076;18.250;2023-05-07T07:10:52;10.90;99.90
23507;DHT22;11930;53.076;18.250;2023-05-07T07:13:18;11.20;99.90
23507;DHT22;11930;53.076;18.250;2023-05-07T07:15:45;11.50;99.90
23507;DHT22;11930;53.076;18.250;2023-05-07T07:18:11;11.80;99.30
23507;DHT22;11930;53.076;18.250;2023-05-07T07:20:38;12.00;99.90
23507;DHT22;11930;53.076;18.250;2023-05-07T07:23:06;12.40;98.10
23507;DHT22;11930;53.076;18.250;2023-05-07T07:25:32;12.70;92.70
23507;DHT22;11930;53.076;18.250;2023-05-07T07:27:58;12.70;91.90
23507;DHT22;11930;53.076;18.250;2023-05-07T07:30:26;12.60;89.30
23507;DHT22;11930;53.076;18.250;2023-05-07T07:32:52;12.80;90.40
23507;DHT22;11930;53.076;18.250;2023-05-07T07:35:19;12.90;91.10
23507;DHT22;11930;53.076;18.250;2023-05-07T07:37:48;13.30;99.00
23507;DHT22;11930;53.076;18.250;2023-05-07T07:40:16;13.10;90.70
23507;DHT22;11930;53.076;18.250;2023-05-07T07:42:43;13.50;90.10
23507;DHT22;11930;53.076;18.250;2023-05-07T07:45:11;13.90;91.60
23507;DHT22;11930;53.076;18.250;2023-05-07T07:47:40;14.10;88.40
23507;DHT22;11930;53.076;18.250;2023-05-07T07:50:07;14.20;88.60
23507;DHT22;11930;53.076;18.250;2023-05-07T07:52:34;14.30;77.20
23507;DHT22;11930;53.076;18.250;2023-05-07T07:55:01;14.10;80.40
23507;DHT22;11930;53.076;18.250;2023-05-07T07:59:55;13.90;78.50
23507;DHT22;11930;53.076;18.250;2023-05-07T08:02:21;13.90;80.10
23507;DHT22;11930;53.076;18.250;2023-05-07T08:07:16;14.20;79.30
23507;DHT22;11930;53.076;18.250;2023-05-07T08:12:15;14.40;76.50
23507;DHT22;11930;53.076;18.250;2023-05-07T08:14:42;14.60;74.50
23507;DHT22;11930;53.076;18.250;2023-05-07T08:17:08;14.40;75.40
23507;DHT22;11930;53.076;18.250;2023-05-07T08:19:37;14.40;76.00
23507;DHT22;11930;53.076;18.250;2023-05-07T08:22:05;14.60;74.80
23507;DHT22;11930;53.076;18.250;2023-05-07T08:24:32;14.90;78.50
23507;DHT22;11930;53.076;18.250;2023-05-07T08:26:58;15.20;73.70
23507;DHT22;11930;53.076;18.250;2023-05-07T08:29:24;15.40;73.10
23507;DHT22;11930;53.076;18.250;2023-05-07T08:31:50;15.50;71.60
23507;DHT22;11930;53.076;18.250;2023-05-07T08:34:16;15.40;70.00
23507;DHT22;11930;53.076;18.250;2023-05-07T08:36:45;15.30;71.80
23507;DHT22;11930;53.076;18.250;2023-05-07T08:39:16;15.20;71.70
23507;DHT22;11930;53.076;18.250;2023-05-07T08:41:48;15.30;74.30
23507;DHT22;11930;53.076;18.250;2023-05-07T08:44:21;15.40;70.80
23507;DHT22;11930;53.076;18.250;2023-05-07T08:46:49;15.30;72.50
23507;DHT22;11930;53.076;18.250;2023-05-07T08:49:18;15.30;71.40
23507;DHT22;11930;53.076;18.250;2023-05-07T08:51:44;15.20;73.10
23507;DHT22;11930;53.076;18.250;2023-05-07T08:54:11;15.20;74.20
23507;DHT22;11930;53.076;18.250;2023-05-07T08:56:38;15.20;74.70
23507;DHT22;11930;53.076;18.250;2023-05-07T08:59:05;15.20;72.20
23507;DHT22;11930;53.076;18.250;2023-05-07T09:01:31;15.30;72.60
23507;DHT22;11930;53.076;18.250;2023-05-07T09:03:58;15.30;69.60
23507;DHT22;11930;53.076;18.250;2023-05-07T09:06:26;15.20;72.80
23507;DHT22;11930;53.076;18.250;2023-05-07T09:08:54;15.10;72.50
23507;DHT22;11930;53.076;18.250;2023-05-07T09:11:23;15.10;73.70
23507;DHT22;11930;53.076;18.250;2023-05-07T09:13:55;15.30;71.00
23507;DHT22;11930;53.076;18.250;2023-05-07T09:16:24;15.50;74.40
23507;DHT22;11930;53.076;18.250;2023-05-07T09:18:52;15.60;70.00
23507;DHT22;11930;53.076;18.250;2023-05-07T09:21:20;15.40;69.50
23507;DHT22;11930;53.076;18.250;2023-05-07T09:23:51;15.40;70.00
23507;DHT22;11930;53.076;18.250;2023-05-07T09:26:19;15.60;76.90
23507;DHT22;11930;53.076;18.250;2023-05-07T09:28:47;15.60;91.20
23507;DHT22;11930;53.076;18.250;2023-05-07T09:31:13;15.20;72.00
23507;DHT22;11930;53.076;18.250;2023-05-07T09:33:40;15.20;72.20
23507;DHT22;11930;53.076;18.250;2023-05-07T09:36:09;15.10;72.50
23507;DHT22;11930;53.076;18.250;2023-05-07T09:38:37;15.10;73.40
23507;DHT22;11930;53.076;18.250;2023-05-07T09:41:11;15.10;72.50
23507;DHT22;11930;53.076;18.250;2023-05-07T09:44:01;15.10;72.30
23507;DHT22;11930;53.076;18.250;2023-05-07T09:46:34;14.70;72.20
23507;DHT22;11930;53.076;18.250;2023-05-07T09:49:07;14.50;91.30
23507;DHT22;11930;53.076;18.250;2023-05-07T09:51:43;14.80;80.80
23507;DHT22;11930;53.076;18.250;2023-05-07T09:56:40;14.10;88.70
23507;DHT22;11930;53.076;18.250;2023-05-07T09:59:13;14.30;72.30
23507;DHT22;11930;53.076;18.250;2023-05-07T10:01:41;14.40;77.80
23507;DHT22;11930;53.076;18.250;2023-05-07T10:06:35;14.40;67.80
23507;DHT22;11930;53.076;18.250;2023-05-07T10:09:03;14.30;72.50
23507;DHT22;11930;53.076;18.250;2023-05-07T10:11:32;14.60;91.20
23507;DHT22;11930;53.076;18.250;2023-05-07T10:14:03;14.40;71.50
23507;DHT22;11930;53.076;18.250;2023-05-07T10:16:33;14.50;69.70
23507;DHT22;11930;53.076;18.250;2023-05-07T10:19:08;14.50;70.40
23507;DHT22;11930;53.076;18.250;2023-05-07T10:21:37;14.40;72.00
23507;DHT22;11930;53.076;18.250;2023-05-07T10:24:07;14.30;73.30
23507;DHT22;11930;53.076;18.250;2023-05-07T10:26:43;14.40;72.50
23507;DHT22;11930;53.076;18.250;2023-05-07T10:32:07;14.30;73.40
23507;DHT22;11930;53.076;18.250;2023-05-07T10:34:41;14.50;69.40
23507;DHT22;11930;53.076;18.250;2023-05-07T10:37:10;14.40;71.30
23507;DHT22;11930;53.076;18.250;2023-05-07T10:39:37;14.40;71.80
23507;DHT22;11930;53.076;18.250;2023-05-07T10:42:14;14.30;67.40
23507;DHT22;11930;53.076;18.250;2023-05-07T10:44:46;14.30;69.90
23507;DHT22;11930;53.076;18.250;2023-05-07T10:47:20;14.20;70.70
23507;DHT22;11930;53.076;18.250;2023-05-07T10:52:23;14.30;69.50
23507;DHT22;11930;53.076;18.250;2023-05-07T10:58:25;14.30;67.70
23507;DHT22;11930;53.076;18.250;2023-05-07T11:00:57;14.40;70.50
23507;DHT22;11930;53.076;18.250;2023-05-07T11:03:28;14.50;67.90
23507;DHT22;11930;53.076;18.250;2023-05-07T11:06:15;14.60;67.90
23507;DHT22;11930;53.076;18.250;2023-05-07T11:08:59;14.60;68.90
23507;DHT22;11930;53.076;18.250;2023-05-07T11:11:50;14.60;67.30
23507;DHT22;11930;53.076;18.250;2023-05-07T11:14:42;14.60;63.90
23507;DHT22;11930;53.076;18.250;2023-05-07T11:17:12;14.60;66.20
23507;DHT22;11930;53.076;18.250;2023-05-07T11:19:51;14.70;67.60
23507;DHT22;11930;53.076;18.250;2023-05-07T11:25:09;14.50;70.20
23507;DHT22;11930;53.076;18.250;2023-05-07T11:27:36;14.30;70.70
23507;DHT22;11930;53.076;18.250;2023-05-07T11:30:02;14.40;71.60
23507;DHT22;11930;53.076;18.250;2023-05-07T11:32:31;14.40;69.00
23507;DHT22;11930;53.076;18.250;2023-05-07T11:34:59;14.50;69.50
23507;DHT22;11930;53.076;18.250;2023-05-07T11:37:27;14.60;66.30
23507;DHT22;11930;53.076;18.250;2023-05-07T11:40:08;14.60;66.50
23507;DHT22;11930;53.076;18.250;2023-05-07T11:42:38;14.60;64.30
23507;DHT22;11930;53.076;18.250;2023-05-07T11:45:05;14.60;69.80
23507;DHT22;11930;53.076;18.250;2023-05-07T11:47:32;14.70;67.10
23507;DHT22;11930;53.076;18.250;2023-05-07T11:50:08;14.70;67.70
23507;DHT22;11930;53.076;18.250;2023-05-07T11:52:36;14.70;65.40
23507;DHT22;11930;53.076;18.250;2023-05-07T11:55:03;14.60;66.30
23507;DHT22;11930;53.076;18.250;2023-05-07T11:57:33;14.40;64.50
23507;DHT22;11930;53.076;18.250;2023-05-07T11:59:59;14.20;63.80
23507;DHT22;11930;53.076;18.250;2023-05-07T12:02:28;14.10;65.70
23507;DHT22;11930;53.076;18.250;2023-05-07T12:04:54;14.10;66.00
23507;DHT22;11930;53.076;18.250;2023-05-07T12:07:21;14.10;65.20
23507;DHT22;11930;53.076;18.250;2023-05-07T12:09:47;14.10;65.30
23507;DHT22;11930;53.076;18.250;2023-05-07T12:12:14;14.10;65.70
23507;DHT22;11930;53.076;18.250;2023-05-07T12:14:42;14.10;65.20
23507;DHT22;11930;53.076;18.250;2023-05-07T12:17:10;14.10;64.60
23507;DHT22;11930;53.076;18.250;2023-05-07T12:19:38;14.10;65.50
23507;DHT22;11930;53.076;18.250;2023-05-07T12:22:05;14.10;64.10
23507;DHT22;11930;53.076;18.250;2023-05-07T12:24:49;14.20;63.10
23507;DHT22;11930;53.076;18.250;2023-05-07T12:27:16;14.20;62.60
23507;DHT22;11930;53.076;18.250;2023-05-07T12:29:50;14.20;63.30
23507;DHT22;11930;53.076;18.250;2023-05-07T12:32:17;14.30;65.60
23507;DHT22;11930;53.076;18.250;2023-05-07T12:34:44;14.20;64.80
23507;DHT22;11930;53.076;18.250;2023-05-07T12:37:11;14.20;64.60
23507;DHT22;11930;53.076;18.250;2023-05-07T12:39:43;14.20;65.50
23507;DHT22;11930;53.076;18.250;2023-05-07T12:42:19;14.10;64.10
23507;DHT22;11930;53.076;18.250;2023-05-07T12:44:46;14.10;64.00
23507;DHT22;11930;53.076;18.250;2023-05-07T12:47:12;14.10;63.90
23507;DHT22;11930;53.076;18.250;2023-05-07T12:49:38;14.20;65.70
23507;DHT22;11930;53.076;18.250;2023-05-07T12:52:06;14.30;65.40
23507;DHT22;11930;53.076;18.250;2023-05-07T12:54:34;14.60;64.20
23507;DHT22;11930;53.076;18.250;2023-05-07T12:57:08;14.70;64.20
23507;DHT22;11930;53.076;18.250;2023-05-07T12:59:41;14.70;61.90
23507;DHT22;11930;53.076;18.250;2023-05-07T13:02:08;14.70;61.70
23507;DHT22;11930;53.076;18.250;2023-05-07T13:04:36;14.70;62.10
23507;DHT22;11930;53.076;18.250;2023-05-07T13:07:02;14.60;62.50
23507;DHT22;11930;53.076;18.250;2023-05-07T13:09:28;14.60;60.30
23507;DHT22;11930;53.076;18.250;2023-05-07T13:11:55;14.60;61.80
23507;DHT22;11930;53.076;18.250;2023-05-07T13:14:21;14.70;61.90
23507;DHT22;11930;53.076;18.250;2023-05-07T13:16:47;14.90;62.30
23507;DHT22;11930;53.076;18.250;2023-05-07T13:19:13;15.00;60.40
23507;DHT22;11930;53.076;18.250;2023-05-07T13:21:39;15.00;60.90
23507;DHT22;11930;53.076;18.250;2023-05-07T13:24:06;15.00;62.30
23507;DHT22;11930;53.076;18.250;2023-05-07T13:26:32;15.00;64.40
23507;DHT22;11930;53.076;18.250;2023-05-07T13:28:58;15.10;61.20
23507;DHT22;11930;53.076;18.250;2023-05-07T13:31:24;15.20;60.50
23507;DHT22;11930;53.076;18.250;2023-05-07T13:33:50;15.20;61.80
23507;DHT22;11930;53.076;18.250;2023-05-07T13:36:18;15.30;56.50
23507;DHT22;11930;53.076;18.250;2023-05-07T13:38:44;15.20;58.30
23507;DHT22;11930;53.076;18.250;2023-05-07T13:41:10;15.20;59.30
23507;DHT22;11930;53.076;18.250;2023-05-07T13:43:37;15.30;58.50
23507;DHT22;11930;53.076;18.250;2023-05-07T13:46:04;15.40;57.80
23507;DHT22;11930;53.076;18.250;2023-05-07T13:48:29;15.40;59.70
23507;DHT22;11930;53.076;18.250;2023-05-07T13:50:56;15.30;59.70
23507;DHT22;11930;53.076;18.250;2023-05-07T13:53:22;15.30;59.90
23507;DHT22;11930;53.076;18.250;2023-05-07T13:55:48;15.30;60.30
23507;DHT22;11930;53.076;18.250;2023-05-07T13:58:14;15.20;59.60
23507;DHT22;11930;53.076;18.250;2023-05-07T14:00:40;15.10;59.80
23507;DHT22;11930;53.076;18.250;2023-05-07T14:03:06;15.00;59.70
23507;DHT22;11930;53.076;18.250;2023-05-07T14:05:32;15.00;58.90
23507;DHT22;11930;53.076;18.250;2023-05-07T14:07:58;15.00;58.60
23507;DHT22;11930;53.076;18.250;2023-05-07T14:10:24;15.00;59.70
23507;DHT22;11930;53.076;18.250;2023-05-07T14:12:50;15.10;58.30
23507;DHT22;11930;53.076;18.250;2023-05-07T14:15:16;15.00;59.40
23507;DHT22;11930;53.076;18.250;2023-05-07T14:17:43;14.80;58.00
23507;DHT22;11930;53.076;18.250;2023-05-07T14:20:10;14.70;59.80
23507;DHT22;11930;53.076;18.250;2023-05-07T14:22:36;14.70;59.50
23507;DHT22;11930;53.076;18.250;2023-05-07T14:25:02;14.60;58.30
23507;DHT22;11930;53.076;18.250;2023-05-07T14:27:28;14.50;58.80
23507;DHT22;11930;53.076;18.250;2023-05-07T14:29:54;14.40;59.20
23507;DHT22;11930;53.076;18.250;2023-05-07T14:32:21;14.30;60.40
23507;DHT22;11930;53.076;18.250;2023-05-07T14:34:47;14.40;61.90
23507;DHT22;11930;53.076;18.250;2023-05-07T14:37:13;14.50;60.20
23507;DHT22;11930;53.076;18.250;2023-05-07T14:39:40;14.60;61.00
23507;DHT22;11930;53.076;18.250;2023-05-07T14:42:06;14.70;58.60
23507;DHT22;11930;53.076;18.250;2023-05-07T14:44:36;14.80;59.00
23507;DHT22;11930;53.076;18.250;2023-05-07T14:47:02;14.90;58.80
23507;DHT22;11930;53.076;18.250;2023-05-07T14:49:29;14.90;58.10
23507;DHT22;11930;53.076;18.250;2023-05-07T14:51:57;14.90;58.60
23507;DHT22;11930;53.076;18.250;2023-05-07T14:54:24;14.90;58.90
23507;DHT22;11930;53.076;18.250;2023-05-07T14:56:50;14.90;58.10
23507;DHT22;11930;53.076;18.250;2023-05-07T14:59:16;14.90;58.40
23507;DHT22;11930;53.076;18.250;2023-05-07T15:01:45;15.00;58.50
23507;DHT22;11930;53.076;18.250;2023-05-07T15:04:11;15.00;56.70
23507;DHT22;11930;53.076;18.250;2023-05-07T15:06:37;15.00;59.00
23507;DHT22;11930;53.076;18.250;2023-05-07T15:09:03;15.00;57.40
23507;DHT22;11930;53.076;18.250;2023-05-07T15:11:29;15.00;58.20
23507;DHT22;11930;53.076;18.250;2023-05-07T15:13:55;15.10;58.20
23507;DHT22;11930;53.076;18.250;2023-05-07T15:16:21;15.20;57.10
23507;DHT22;11930;53.076;18.250;2023-05-07T15:18:48;15.20;56.00
23507;DHT22;11930;53.076;18.250;2023-05-07T15:21:14;15.20;55.30
23507;DHT22;11930;53.076;18.250;2023-05-07T15:23:40;15.20;54.70
23507;DHT22;11930;53.076;18.250;2023-05-07T15:26:10;15.20;55.10
23507;DHT22;11930;53.076;18.250;2023-05-07T15:28:36;15.20;55.60
23507;DHT22;11930;53.076;18.250;2023-05-07T15:31:02;15.20;55.10
23507;DHT22;11930;53.076;18.250;2023-05-07T15:33:28;15.20;55.10
23507;DHT22;11930;53.076;18.250;2023-05-07T15:35:54;15.20;55.50
23507;DHT22;11930;53.076;18.250;2023-05-07T15:38:25;15.20;55.80
23507;DHT22;11930;53.076;18.250;2023-05-07T15:40:51;15.20;56.00
23507;DHT22;11930;53.076;18.250;2023-05-07T15:43:18;15.20;55.50
23507;DHT22;11930;53.076;18.250;2023-05-07T15:45:43;15.30;56.20
23507;DHT22;11930;53.076;18.250;2023-05-07T15:48:10;15.20;56.30
23507;DHT22;11930;53.076;18.250;2023-05-07T15:50:36;15.20;55.80